Time;durP1;ratioP1;P1;durP2;ratioP2;P2;SDS_P1;SDS_P2;PMS_P1;PMS_P2;Temp;Humidity;BMP_temperature;BMP_pressure;BME280_temperature;BME280_humidity;BME280_pressure;Samples;Min_cycle;Max_cycle;Signal;HPM_P1;HPM_P2
2021/12/13 00:01:14;;;;;;;130.68;34.28;;;9.40;99.90;;;;;;6158059;23;20020;-85
2021/12/13 00:03:42;;;;;;;135.70;32.85;;;9.30;99.90;;;;;;6194317;23;20051;-87
2021/12/13 00:06:16;;;;;;;133.07;33.33;;;9.30;99.90;;;;;;6193703;23;20060;-85
2021/12/13 00:08:47;;;;;;;109.82;29.60;;;9.30;99.90;;;;;;6188779;23;20504;-86
2021/12/13 00:11:18;;;;;;;84.82;26.08;;;9.30;99.90;;;;;;6164211;23;20107;-86
2021/12/13 00:13:53;;;;;;;93.30;25.88;;;9.30;99.90;;;;;;6188705;23;20531;-86
2021/12/13 00:16:35;;;;;;;94.82;27.20;;;9.30;99.90;;;;;;6188261;23;20032;-86
2021/12/13 00:19:09;;;;;;;93.22;27.05;;;9.30;99.90;;;;;;6213692;23;20081;-86
2021/12/13 00:21:44;;;;;;;100.47;27.52;;;9.30;99.90;;;;;;6188998;23;20027;-86
2021/12/13 00:24:22;;;;;;;102.93;25.70;;;9.30;99.90;;;;;;6189114;23;20027;-86
2021/12/13 00:26:50;;;;;;;104.80;27.52;;;9.30;99.90;;;;;;6188790;23;20021;-86
2021/12/13 00:29:23;;;;;;;104.18;25.35;;;9.30;99.90;;;;;;6163663;23;20025;-85
2021/12/13 00:32:32;;;;;;;89.20;25.73;;;9.30;99.90;;;;;;6215650;23;20106;-85
2021/12/13 00:35:00;;;;;;;98.57;25.38;;;9.30;99.90;;;;;;6188146;23;20024;-87
2021/12/13 00:37:44;;;;;;;102.18;26.27;;;9.30;99.90;;;;;;6214954;23;20059;-86
2021/12/13 00:40:49;;;;;;;103.13;26.48;;;9.30;99.90;;;;;;6188295;23;20031;-86
2021/12/13 00:43:35;;;;;;;119.57;28.42;;;9.30;99.90;;;;;;6186765;23;20028;-86
2021/12/13 00:46:14;;;;;;;123.32;28.63;;;9.30;99.90;;;;;;6163535;23;20020;-86
2021/12/13 00:48:45;;;;;;;126.80;27.30;;;9.20;99.90;;;;;;6188205;23;20437;-86
2021/12/13 00:51:14;;;;;;;129.93;29.27;;;9.30;99.90;;;;;;6191169;23;20032;-85
2021/12/13 00:53:47;;;;;;;127.85;28.85;;;9.30;99.90;;;;;;6195329;23;20027;-85
2021/12/13 00:56:45;;;;;;;126.53;29.63;;;9.30;99.90;;;;;;6216865;23;20021;-86
2021/12/13 00:59:23;;;;;;;150.23;32.63;;;9.30;99.90;;;;;;6188432;23;20063;-86
2021/12/13 01:02:03;;;;;;;123.60;30.42;;;9.30;99.90;;;;;;6188347;23;20025;-86
2021/12/13 01:05:24;;;;;;;106.40;27.35;;;9.30;99.90;;;;;;6188453;23;20060;-85
2021/12/13 01:08:26;;;;;;;120.00;27.40;;;9.30;99.90;;;;;;6123311;23;20081;-86
2021/12/13 01:11:10;;;;;;;140.10;30.13;;;9.30;99.90;;;;;;6074077;23;20030;-85
2021/12/13 01:14:13;;;;;;;121.03;28.38;;;9.20;99.90;;;;;;6098456;23;20022;-85
2021/12/13 01:19:54;;;;;;;130.77;32.13;;;9.20;99.90;;;;;;6090839;23;20066;-86
2021/12/13 01:28:47;;;;;;;159.95;33.45;;;9.20;99.90;;;;;;6072920;23;20017;-86
2021/12/13 01:31:21;;;;;;;151.27;33.65;;;9.20;99.90;;;;;;6130321;23;20061;-85
2021/12/13 01:33:54;;;;;;;152.53;32.93;;;9.10;99.90;;;;;;6127874;23;20083;-86
2021/12/13 01:36:47;;;;;;;127.95;30.13;;;9.10;99.90;;;;;;6104114;23;20025;-87
2021/12/13 01:39:20;;;;;;;133.57;32.75;;;9.10;99.90;;;;;;6127372;23;20540;-86
2021/12/13 01:41:50;;;;;;;139.63;32.28;;;9.20;99.90;;;;;;6190326;23;20484;-86
2021/12/13 01:44:25;;;;;;;113.53;30.45;;;9.20;99.90;;;;;;6188280;23;20031;-86
2021/12/13 01:46:57;;;;;;;119.40;29.60;;;9.10;99.90;;;;;;6215184;23;20535;-86
2021/12/13 01:49:39;;;;;;;118.50;32.38;;;9.10;99.90;;;;;;6187794;23;20352;-86
2021/12/13 01:52:13;;;;;;;115.32;30.75;;;9.20;99.90;;;;;;6215307;23;20021;-86
2021/12/13 01:54:50;;;;;;;152.25;34.90;;;9.20;99.90;;;;;;6188632;23;20020;-86
2021/12/13 01:57:27;;;;;;;119.28;30.05;;;9.10;99.90;;;;;;6187935;23;20020;-86
2021/12/13 02:00:08;;;;;;;104.60;29.77;;;9.10;99.90;;;;;;6188896;23;20031;-86
2021/12/13 02:02:53;;;;;;;117.70;30.00;;;9.10;99.90;;;;;;6187947;23;20023;-86
2021/12/13 02:05:32;;;;;;;119.10;32.03;;;9.10;99.90;;;;;;6190441;23;20043;-86
2021/12/13 02:08:11;;;;;;;127.55;32.70;;;9.10;99.90;;;;;;6189264;23;20024;-87
2021/12/13 02:10:42;;;;;;;120.78;31.98;;;9.10;99.90;;;;;;6193599;23;20028;-86
2021/12/13 02:13:37;;;;;;;102.15;30.20;;;9.10;99.90;;;;;;6188556;23;20020;-85
2021/12/13 02:18:57;;;;;;;114.85;30.40;;;9.20;99.90;;;;;;6191818;23;20017;-86
2021/12/13 02:21:31;;;;;;;110.97;32.92;;;9.10;99.90;;;;;;6187584;23;20468;-85
2021/12/13 02:24:09;;;;;;;103.80;30.83;;;9.10;99.90;;;;;;6187800;23;20050;-86
2021/12/13 02:26:40;;;;;;;109.10;30.33;;;9.10;99.90;;;;;;6188072;23;20455;-86
2021/12/13 02:29:20;;;;;;;122.60;34.40;;;9.10;99.90;;;;;;6187676;23;20031;-85
2021/12/13 02:31:46;;;;;;;108.47;30.02;;;9.00;99.90;;;;;;6187979;23;20039;-86
2021/12/13 02:34:15;;;;;;;108.53;29.98;;;9.10;99.90;;;;;;6187934;23;20020;-85
2021/12/13 02:36:50;;;;;;;116.38;31.73;;;9.10;99.90;;;;;;6187910;23;20043;-86
2021/12/13 02:39:28;;;;;;;108.18;31.40;;;9.10;99.90;;;;;;6162509;23;20433;-86
2021/12/13 02:41:55;;;;;;;119.35;32.38;;;9.10;99.90;;;;;;6212484;23;20150;-86
2021/12/13 02:44:28;;;;;;;108.13;31.02;;;9.10;99.90;;;;;;6162634;23;20028;-85
2021/12/13 02:47:02;;;;;;;125.13;30.75;;;9.10;99.90;;;;;;6187713;23;20020;-86
2021/12/13 02:49:31;;;;;;;117.10;32.13;;;9.10;99.90;;;;;;6188119;23;20060;-86
2021/12/13 02:52:01;;;;;;;125.35;32.88;;;9.10;99.90;;;;;;6195633;23;20063;-86
2021/12/13 02:54:36;;;;;;;128.80;32.25;;;9.10;99.90;;;;;;6187469;23;20081;-85
2021/12/13 02:57:11;;;;;;;110.90;31.80;;;9.10;99.90;;;;;;6163094;23;20020;-86
2021/12/13 02:59:39;;;;;;;147.43;34.55;;;9.10;99.90;;;;;;6187219;23;20032;-85
2021/12/13 03:02:27;;;;;;;129.15;33.00;;;9.10;99.90;;;;;;6214530;23;20348;-86
2021/12/13 03:04:54;;;;;;;132.98;31.45;;;9.10;99.90;;;;;;6187529;23;20036;-86
2021/12/13 03:07:31;;;;;;;136.10;32.85;;;9.10;99.90;;;;;;6188178;23;20348;-86
2021/12/13 03:10:01;;;;;;;133.57;33.60;;;9.10;99.90;;;;;;6214601;23;20024;-85
2021/12/13 03:12:58;;;;;;;106.80;32.53;;;9.00;99.90;;;;;;6186372;23;20099;-86
2021/12/13 03:15:57;;;;;;;103.75;32.67;;;9.00;99.90;;;;;;6132487;23;20021;-85
2021/12/13 03:18:34;;;;;;;108.43;31.25;;;9.00;99.90;;;;;;6107638;23;20393;-85
2021/12/13 03:21:19;;;;;;;109.97;30.33;;;9.00;99.90;;;;;;6156414;23;20021;-85
2021/12/13 03:24:04;;;;;;;94.68;29.73;;;9.00;99.90;;;;;;6132183;23;20084;-86
2021/12/13 03:26:52;;;;;;;96.95;29.10;;;9.00;99.90;;;;;;6156522;23;20531;-85
2021/12/13 03:29:25;;;;;;;114.25;31.40;;;9.00;99.90;;;;;;6185716;23;20075;-86
2021/12/13 03:31:55;;;;;;;89.13;27.52;;;9.00;99.90;;;;;;6159755;23;20041;-85
2021/12/13 03:34:24;;;;;;;75.85;27.35;;;9.00;99.90;;;;;;6156241;23;20531;-85
2021/12/13 03:37:01;;;;;;;91.88;26.23;;;9.10;99.90;;;;;;6156573;23;20032;-85
2021/12/13 03:39:32;;;;;;;77.32;25.05;;;9.10;99.90;;;;;;6156614;23;20044;-86
2021/12/13 03:42:00;;;;;;;75.13;23.73;;;9.00;99.90;;;;;;6156553;23;20017;-86
2021/12/13 03:44:31;;;;;;;64.18;22.00;;;9.00;99.90;;;;;;6156098;23;20064;-86
2021/12/13 03:47:22;;;;;;;67.85;20.80;;;9.00;99.90;;;;;;6155376;23;20025;-86
2021/12/13 03:50:00;;;;;;;80.90;22.05;;;9.00;99.90;;;;;;6187510;22;20028;-86
2021/12/13 03:52:50;;;;;;;58.58;21.20;;;9.00;99.90;;;;;;6186290;23;20488;-86
2021/12/13 03:55:20;;;;;;;68.40;18.58;;;9.00;99.90;;;;;;6187935;23;20091;-85
2021/12/13 03:57:53;;;;;;;57.88;18.10;;;9.00;99.90;;;;;;6187031;23;20020;-86
2021/12/13 04:00:23;;;;;;;62.50;17.20;;;9.00;99.90;;;;;;6212223;23;20028;-85
2021/12/13 04:02:51;;;;;;;53.47;16.70;;;9.00;99.90;;;;;;6187227;23;20036;-86
2021/12/13 04:05:21;;;;;;;62.20;18.35;;;9.00;99.90;;;;;;6214060;23;20021;-86
2021/12/13 04:07:53;;;;;;;45.05;15.77;;;9.00;99.90;;;;;;6190455;23;20039;-86
2021/12/13 04:10:23;;;;;;;48.28;15.35;;;9.00;99.90;;;;;;6220903;23;20024;-85
2021/12/13 04:12:53;;;;;;;48.33;16.67;;;9.00;99.90;;;;;;6187020;23;20021;-86
2021/12/13 04:15:48;;;;;;;45.42;14.25;;;9.00;99.90;;;;;;6214622;23;20024;-86
2021/12/13 04:19:06;;;;;;;44.88;15.13;;;9.00;99.90;;;;;;6187136;23;20020;-86
2021/12/13 04:21:48;;;;;;;46.38;14.05;;;9.00;99.90;;;;;;6188828;23;20103;-85
2021/12/13 04:24:40;;;;;;;39.53;14.23;;;9.00;99.90;;;;;;6211057;23;20326;-85
2021/12/13 04:27:21;;;;;;;38.92;13.88;;;9.00;99.90;;;;;;6189073;23;20028;-85
2021/12/13 04:29:54;;;;;;;44.30;14.80;;;9.00;99.90;;;;;;6213386;23;20020;-85
2021/12/13 04:32:31;;;;;;;42.05;17.27;;;9.00;99.90;;;;;;6188965;23;20059;-86
2021/12/13 04:35:00;;;;;;;41.47;15.52;;;9.00;99.90;;;;;;6216215;23;20040;-86
2021/12/13 04:37:31;;;;;;;42.80;15.50;;;9.00;99.90;;;;;;6188452;23;20396;-86
2021/12/13 04:40:07;;;;;;;33.88;14.15;;;8.90;99.90;;;;;;6214194;23;20028;-85
2021/12/13 04:42:34;;;;;;;34.88;13.68;;;9.00;99.90;;;;;;6185348;23;20023;-85
2021/12/13 04:45:13;;;;;;;41.53;12.98;;;9.00;99.90;;;;;;6163564;23;20100;-85
2021/12/13 04:47:57;;;;;;;31.83;12.38;;;8.90;99.90;;;;;;6189026;23;20025;-86
2021/12/13 04:50:34;;;;;;;27.75;11.48;;;8.90;99.90;;;;;;6193454;23;20024;-86
2021/12/13 04:53:06;;;;;;;28.80;10.60;;;8.90;99.90;;;;;;6188739;23;20028;-85
2021/12/13 04:55:38;;;;;;;23.25;9.25;;;8.90;99.90;;;;;;6188808;23;20032;-84
2021/12/13 04:58:09;;;;;;;28.63;9.65;;;8.90;99.90;;;;;;6188889;23;20028;-85
2021/12/13 05:01:00;;;;;;;21.48;8.95;;;8.90;99.90;;;;;;6189418;23;20035;-84
2021/12/13 05:03:32;;;;;;;19.77;8.32;;;8.90;99.90;;;;;;6188898;23;20154;-85
2021/12/13 05:06:00;;;;;;;26.15;8.52;;;8.90;99.90;;;;;;6188489;23;20024;-86
2021/12/13 05:08:37;;;;;;;17.20;6.13;;;8.90;99.90;;;;;;6190840;23;20099;-86
2021/12/13 05:11:07;;;;;;;19.35;7.45;;;8.90;99.90;;;;;;6164170;23;20028;-86
2021/12/13 05:13:38;;;;;;;17.15;6.05;;;8.80;99.90;;;;;;6188656;23;20025;-85
2021/12/13 05:16:09;;;;;;;20.05;6.00;;;8.80;99.90;;;;;;6188350;23;20075;-85
2021/12/13 05:18:45;;;;;;;11.55;5.80;;;8.80;99.90;;;;;;6188469;23;20024;-85
2021/12/13 05:21:16;;;;;;;14.75;5.65;;;8.80;99.90;;;;;;6215721;23;20027;-85
2021/12/13 05:23:54;;;;;;;17.60;6.22;;;8.80;99.90;;;;;;6189021;23;20024;-85
2021/12/13 05:26:32;;;;;;;15.13;5.38;;;8.90;99.90;;;;;;6215604;23;20028;-85
2021/12/13 05:29:04;;;;;;;15.93;4.93;;;8.80;99.90;;;;;;6189968;23;20020;-85
2021/12/13 05:31:31;;;;;;;17.65;5.78;;;8.90;99.90;;;;;;6194008;23;20027;-85
2021/12/13 05:34:06;;;;;;;16.25;6.00;;;8.90;99.90;;;;;;6217351;23;20063;-86
2021/12/13 05:36:36;;;;;;;21.05;5.55;;;8.80;99.90;;;;;;6188639;23;20463;-85
2021/12/13 05:39:08;;;;;;;15.75;6.20;;;8.80;99.90;;;;;;6188221;23;20024;-86
2021/12/13 05:41:34;;;;;;;14.32;5.93;;;8.80;99.90;;;;;;6188461;23;20510;-85
2021/12/13 05:44:04;;;;;;;19.08;6.57;;;8.80;99.90;;;;;;6188192;23;20134;-86
2021/12/13 05:46:50;;;;;;;17.63;7.03;;;8.80;99.90;;;;;;6187988;23;20032;-86
2021/12/13 05:49:37;;;;;;;12.15;6.40;;;8.80;99.90;;;;;;6213668;22;20024;-86
2021/12/13 05:52:15;;;;;;;13.18;7.57;;;8.80;99.90;;;;;;6188651;23;20056;-85
2021/12/13 05:54:44;;;;;;;14.15;8.32;;;8.80;99.90;;;;;;6188544;23;20508;-86
2021/12/13 05:57:18;;;;;;;15.75;7.53;;;8.80;99.90;;;;;;6188474;23;20031;-84
2021/12/13 05:59:53;;;;;;;17.63;7.25;;;8.80;99.90;;;;;;6189132;23;20103;-85
2021/12/13 06:02:49;;;;;;;17.17;9.40;;;8.80;99.90;;;;;;6213251;23;20065;-86
2021/12/13 06:05:26;;;;;;;22.42;8.30;;;8.80;99.90;;;;;;6188787;23;20092;-85
2021/12/13 06:07:59;;;;;;;14.27;8.30;;;8.80;99.90;;;;;;6188402;23;20406;-85
2021/12/13 06:10:41;;;;;;;18.58;9.65;;;8.80;99.90;;;;;;6188209;23;20051;-86
2021/12/13 06:13:14;;;;;;;18.15;8.38;;;8.80;99.90;;;;;;6192404;23;20025;-87
2021/12/13 06:15:42;;;;;;;16.00;8.73;;;8.80;99.90;;;;;;6190756;23;20099;-84
2021/12/13 06:18:21;;;;;;;16.02;8.82;;;8.80;99.90;;;;;;6188145;23;20032;-86
2021/12/13 06:21:13;;;;;;;18.58;9.57;;;8.80;99.90;;;;;;6188069;23;20021;-85
2021/12/13 06:23:41;;;;;;;21.75;9.52;;;8.80;99.90;;;;;;6187974;23;20147;-85
2021/12/13 06:26:12;;;;;;;19.30;10.48;;;8.80;99.90;;;;;;6162606;23;20449;-85
2021/12/13 06:28:57;;;;;;;17.30;10.32;;;8.80;99.90;;;;;;6187851;23;20436;-85
2021/12/13 06:31:33;;;;;;;19.08;9.13;;;8.80;99.90;;;;;;6188290;23;20020;-85
2021/12/13 06:34:03;;;;;;;19.92;9.13;;;8.80;99.90;;;;;;6215251;23;20036;-86
2021/12/13 06:36:38;;;;;;;21.25;9.98;;;8.80;99.90;;;;;;6187837;23;20104;-85
2021/12/13 06:39:11;;;;;;;16.58;10.00;;;8.80;99.90;;;;;;6214763;23;20096;-86
2021/12/13 06:41:47;;;;;;;22.95;9.60;;;8.80;99.90;;;;;;6188093;23;20329;-85
2021/12/13 06:44:41;;;;;;;15.43;8.95;;;8.90;99.90;;;;;;6162441;23;20067;-85
2021/12/13 06:47:14;;;;;;;16.40;8.98;;;8.90;99.90;;;;;;6187785;23;20079;-85
2021/12/13 06:49:48;;;;;;;;;;;8.90;99.90;;;;;;6169473;23;20025;-85
2021/12/13 06:52:13;;;;;;;15.23;9.35;;;8.80;99.90;;;;;;6158242;23;20365;-84
2021/12/13 06:54:49;;;;;;;17.20;9.35;;;8.80;99.90;;;;;;6161947;23;20033;-84
2021/12/13 06:57:24;;;;;;;20.70;10.18;;;8.80;99.90;;;;;;6190684;23;20029;-85
2021/12/13 07:00:10;;;;;;;;;;;8.80;99.90;;;;;;6160120;23;20028;-85
2021/12/13 07:03:04;;;;;;;19.95;9.52;;;8.80;99.90;;;;;;6182546;23;19916;-85
2021/12/13 07:06:06;;;;;;;18.52;9.68;;;8.70;99.90;;;;;;6159480;23;20021;-84
2021/12/13 07:08:37;;;;;;;19.85;9.82;;;8.80;99.90;;;;;;6098240;23;20362;-85
2021/12/13 07:11:21;;;;;;;18.75;9.65;;;8.70;99.90;;;;;;6095774;23;20409;-85
2021/12/13 07:14:01;;;;;;;17.27;9.05;;;8.70;99.90;;;;;;6122680;23;20030;-85
2021/12/13 07:16:33;;;;;;;19.02;9.60;;;8.70;99.90;;;;;;6122457;23;20029;-85
2021/12/13 07:19:23;;;;;;;16.08;9.75;;;8.70;99.90;;;;;;6122486;23;20470;-85
2021/12/13 07:22:05;;;;;;;21.70;10.45;;;8.70;99.90;;;;;;6098249;23;20018;-85
2021/12/13 07:24:42;;;;;;;14.63;8.75;;;8.70;99.90;;;;;;6122347;23;20100;-85
2021/12/13 07:27:27;;;;;;;16.02;9.25;;;8.70;99.90;;;;;;6122710;23;20442;-85
2021/12/13 07:30:04;;;;;;;17.90;9.98;;;8.70;99.90;;;;;;6122195;23;20021;-85
2021/12/13 07:32:33;;;;;;;19.45;10.13;;;8.70;99.90;;;;;;6122538;23;20033;-85
2021/12/13 07:35:22;;;;;;;19.13;9.40;;;8.70;99.90;;;;;;6126598;23;20025;-85
2021/12/13 07:37:57;;;;;;;20.45;10.27;;;8.70;99.90;;;;;;6130616;23;20064;-85
2021/12/13 07:40:31;;;;;;;25.77;11.43;;;8.70;99.90;;;;;;6099160;23;20026;-85
2021/12/13 07:43:15;;;;;;;19.23;10.25;;;8.70;99.90;;;;;;6123634;23;20018;-85
2021/12/13 07:46:20;;;;;;;22.23;10.88;;;8.70;99.90;;;;;;6132770;23;20025;-85
2021/12/13 07:48:46;;;;;;;16.92;11.23;;;8.70;99.90;;;;;;6105834;23;20096;-86
2021/12/13 07:51:25;;;;;;;23.25;11.15;;;8.70;99.90;;;;;;6126598;23;20060;-86
2021/12/13 07:53:54;;;;;;;20.80;11.50;;;8.70;99.90;;;;;;6126885;23;20454;-85
2021/12/13 07:56:28;;;;;;;23.80;11.77;;;8.70;99.90;;;;;;6126647;23;20401;-86
2021/12/13 07:59:26;;;;;;;21.65;11.57;;;8.70;99.90;;;;;;6128704;23;20029;-86
2021/12/13 08:02:18;;;;;;;21.98;11.35;;;8.70;99.90;;;;;;6128420;23;20576;-86
2021/12/13 08:04:46;;;;;;;22.95;11.60;;;8.70;99.90;;;;;;6151774;23;20021;-85
2021/12/13 08:07:32;;;;;;;21.13;12.15;;;8.70;99.90;;;;;;6153701;23;20152;-86
2021/12/13 08:10:20;;;;;;;23.95;12.43;;;8.80;99.90;;;;;;6128373;23;20025;-84
2021/12/13 08:13:10;;;;;;;20.80;12.70;;;8.80;99.90;;;;;;6153370;23;20021;-85
2021/12/13 08:15:44;;;;;;;19.20;11.95;;;8.80;99.90;;;;;;6134201;23;20029;-84
2021/12/13 08:18:22;;;;;;;22.48;12.63;;;8.80;99.90;;;;;;6135983;23;20083;-86
2021/12/13 08:21:00;;;;;;;22.45;12.40;;;8.80;99.90;;;;;;6154242;23;20069;-86
2021/12/13 08:23:43;;;;;;;22.33;12.70;;;8.80;99.90;;;;;;6130851;23;20059;-85
2021/12/13 08:26:13;;;;;;;21.95;13.50;;;8.80;99.90;;;;;;6184087;23;20452;-86
2021/12/13 08:28:48;;;;;;;23.58;13.48;;;8.80;99.90;;;;;;6216659;23;20397;-85
2021/12/13 08:31:40;;;;;;;;;;;8.80;99.90;;;;;;6189241;23;20031;-86
2021/12/13 08:34:23;;;;;;;23.88;13.45;;;8.80;99.90;;;;;;6186548;23;20263;-84
2021/12/13 08:36:52;;;;;;;24.50;13.15;;;8.90;99.90;;;;;;6216178;23;20407;-85
2021/12/13 08:39:34;;;;;;;20.58;13.07;;;8.80;99.90;;;;;;6214876;23;20523;-85
2021/12/13 08:42:15;;;;;;;21.70;12.57;;;8.90;99.90;;;;;;6188277;23;20028;-85
2021/12/13 08:44:56;;;;;;;20.23;12.05;;;8.90;99.90;;;;;;6189007;23;20139;-86
2021/12/13 08:47:46;;;;;;;20.75;11.93;;;8.90;99.90;;;;;;6188479;23;20397;-85
2021/12/13 08:50:30;;;;;;;22.60;13.13;;;8.90;99.90;;;;;;6188625;23;20095;-85
2021/12/13 08:53:14;;;;;;;19.88;11.70;;;8.90;99.90;;;;;;6189599;23;20021;-86
2021/12/13 08:55:44;;;;;;;20.25;12.85;;;8.90;99.90;;;;;;6216874;23;20032;-86
2021/12/13 08:58:17;;;;;;;22.85;12.90;;;8.90;99.90;;;;;;6188868;23;20052;-85
2021/12/13 09:01:16;;;;;;;23.55;13.10;;;9.00;99.90;;;;;;6184077;23;20024;-85
2021/12/13 09:03:45;;;;;;;25.75;13.05;;;8.90;99.90;;;;;;6127869;23;20403;-86
2021/12/13 09:06:16;;;;;;;21.75;12.70;;;9.00;99.90;;;;;;6099835;23;20528;-86
2021/12/13 09:09:17;;;;;;;21.10;12.82;;;9.00;99.90;;;;;;6098892;23;20536;-85
2021/12/13 09:12:03;;;;;;;19.98;12.88;;;9.00;99.90;;;;;;5988985;23;20023;-86
2021/12/13 09:14:35;;;;;;;18.83;12.00;;;9.00;99.90;;;;;;6012723;23;20027;-86
2021/12/13 09:17:15;;;;;;;21.23;11.32;;;9.00;99.90;;;;;;6013569;23;20034;-84
2021/12/13 09:19:49;;;;;;;21.05;12.38;;;9.00;99.90;;;;;;6036840;23;20035;-85
2021/12/13 09:22:39;;;;;;;20.10;12.57;;;9.00;99.90;;;;;;6036868;23;20514;-84
2021/12/13 09:25:18;;;;;;;20.60;11.88;;;9.10;99.90;;;;;;6013138;23;20024;-86
2021/12/13 09:28:13;;;;;;;21.02;11.98;;;9.10;99.90;;;;;;6037052;23;20126;-85
2021/12/13 09:31:11;;;;;;;25.20;13.40;;;9.10;99.90;;;;;;5984465;23;20523;-86
2021/12/13 09:33:50;;;;;;;19.10;12.00;;;9.10;99.90;;;;;;6035955;23;20027;-86
2021/12/13 09:36:32;;;;;;;21.75;12.10;;;9.10;99.90;;;;;;6012732;23;20059;-86
2021/12/13 09:39:06;;;;;;;18.85;11.27;;;9.10;99.90;;;;;;6011507;23;20023;-85
2021/12/13 09:41:46;;;;;;;16.48;10.68;;;9.10;99.90;;;;;;6093897;23;20162;-85
2021/12/13 09:44:12;;;;;;;17.35;10.23;;;9.10;99.90;;;;;;6094061;23;20026;-84
2021/12/13 09:46:56;;;;;;;15.60;10.63;;;9.10;99.90;;;;;;6202880;23;20033;-86
2021/12/13 09:49:30;;;;;;;18.20;10.93;;;9.10;99.90;;;;;;6168357;23;20024;-87
2021/12/13 09:52:16;;;;;;;21.27;10.85;;;9.10;99.90;;;;;;6189045;23;20032;-87
2021/12/13 09:54:48;;;;;;;16.13;10.10;;;9.10;99.90;;;;;;6189082;23;20027;-86
2021/12/13 09:57:25;;;;;;;19.73;10.48;;;9.10;99.90;;;;;;6188423;23;20024;-86
2021/12/13 09:59:53;;;;;;;18.45;10.75;;;9.20;99.90;;;;;;6188785;23;20024;-86
2021/12/13 10:02:30;;;;;;;19.88;11.07;;;9.10;99.90;;;;;;6188423;23;20024;-86
2021/12/13 10:05:05;;;;;;;17.98;10.13;;;9.20;99.90;;;;;;6189270;23;20094;-86
2021/12/13 10:07:39;;;;;;;21.65;11.63;;;9.20;99.90;;;;;;6189710;23;20021;-85
2021/12/13 10:10:16;;;;;;;21.10;10.75;;;9.30;99.90;;;;;;6188726;23;20028;-86
2021/12/13 10:12:57;;;;;;;17.75;10.32;;;9.30;99.90;;;;;;6188472;23;20070;-86
2021/12/13 10:15:33;;;;;;;16.90;9.57;;;9.30;99.90;;;;;;6188391;23;20028;-86
2021/12/13 10:18:10;;;;;;;17.52;10.15;;;9.30;99.90;;;;;;6188063;23;20028;-86
2021/12/13 10:20:41;;;;;;;16.48;9.55;;;9.30;99.90;;;;;;6188335;23;20108;-85
2021/12/13 10:23:11;;;;;;;16.48;9.50;;;9.30;99.90;;;;;;6189110;23;20017;-86
2021/12/13 10:25:40;;;;;;;15.32;9.80;;;9.30;99.90;;;;;;6192183;23;20017;-86
2021/12/13 10:28:13;;;;;;;18.77;10.93;;;9.30;99.90;;;;;;6190259;23;20021;-85
2021/12/13 10:30:43;;;;;;;19.40;10.80;;;9.30;99.90;;;;;;6187581;23;20445;-86
2021/12/13 10:33:10;;;;;;;20.15;11.32;;;9.30;99.90;;;;;;6216020;23;20055;-87
2021/12/13 10:35:41;;;;;;;19.05;11.45;;;9.30;99.90;;;;;;6187887;23;20353;-87
2021/12/13 10:38:29;;;;;;;17.75;9.75;;;9.30;99.90;;;;;;6163335;23;20020;-87
2021/12/13 10:41:09;;;;;;;18.33;10.77;;;9.20;99.90;;;;;;6161971;23;20079;-87
2021/12/13 10:43:41;;;;;;;16.38;10.07;;;9.30;99.90;;;;;;6187705;23;20031;-87
2021/12/13 10:46:14;;;;;;;17.23;11.05;;;9.30;99.90;;;;;;6188432;23;20347;-87
2021/12/13 10:48:46;;;;;;;19.95;10.43;;;9.30;99.90;;;;;;6215699;23;20368;-86
2021/12/13 10:51:16;;;;;;;18.98;9.82;;;9.30;99.90;;;;;;6213061;23;20034;-86
2021/12/13 10:53:44;;;;;;;15.90;10.23;;;9.30;99.90;;;;;;6187660;23;20456;-86
2021/12/13 10:56:15;;;;;;;18.85;9.93;;;9.30;99.90;;;;;;6187683;23;20021;-86
2021/12/13 10:58:45;;;;;;;19.73;10.88;;;9.30;99.90;;;;;;6187955;23;20020;-87
2021/12/13 11:01:20;;;;;;;20.33;10.23;;;9.30;99.90;;;;;;6187666;23;20027;-86
2021/12/13 11:03:47;;;;;;;18.05;11.02;;;9.30;99.90;;;;;;6214215;23;20441;-87
2021/12/13 11:06:15;;;;;;;21.00;11.30;;;9.20;99.90;;;;;;6218719;23;20020;-87
2021/12/13 11:08:43;;;;;;;19.02;11.20;;;9.20;99.90;;;;;;6190867;23;20020;-86
2021/12/13 11:11:26;;;;;;;22.02;12.63;;;9.20;99.90;;;;;;6212563;23;20035;-87
2021/12/13 11:13:55;;;;;;;21.95;11.82;;;9.20;99.90;;;;;;6214867;23;20460;-86
2021/12/13 11:16:37;;;;;;;19.80;12.27;;;9.20;99.90;;;;;;6187727;23;20021;-86
2021/12/13 11:19:06;;;;;;;21.40;12.18;;;9.20;99.90;;;;;;6215413;23;20031;-86
2021/12/13 11:21:37;;;;;;;22.45;12.80;;;9.20;99.90;;;;;;6213692;23;20031;-86
2021/12/13 11:24:16;;;;;;;22.98;12.05;;;9.30;99.90;;;;;;6214743;23;20068;-86
2021/12/13 11:26:47;;;;;;;23.38;13.73;;;9.30;99.90;;;;;;6162659;23;20460;-86
2021/12/13 11:29:15;;;;;;;20.67;12.90;;;9.40;99.90;;;;;;6188646;23;20111;-86
2021/12/13 11:32:13;;;;;;;26.27;14.98;;;9.40;99.90;;;;;;6216287;23;20456;-86
2021/12/13 11:35:12;;;;;;;25.50;14.07;;;9.40;99.90;;;;;;6164862;23;20028;-86
2021/12/13 11:38:26;;;;;;;24.45;13.63;;;9.40;99.90;;;;;;6179364;23;20043;-87
2021/12/13 11:41:03;;;;;;;21.00;13.27;;;9.40;99.90;;;;;;6189894;23;20082;-87
2021/12/13 11:43:38;;;;;;;20.67;12.63;;;9.40;99.90;;;;;;6189313;23;20047;-87
2021/12/13 11:46:09;;;;;;;26.52;14.07;;;9.40;99.90;;;;;;6215402;23;20017;-86
2021/12/13 11:48:45;;;;;;;22.85;14.25;;;9.40;99.90;;;;;;6217176;23;20028;-87
2021/12/13 11:51:50;;;;;;;23.13;14.30;;;9.40;99.90;;;;;;6192696;23;20356;-86
2021/12/13 11:54:45;;;;;;;23.13;14.68;;;9.40;99.90;;;;;;6193504;23;20114;-86
2021/12/13 11:57:35;;;;;;;24.20;15.02;;;9.40;99.90;;;;;;6179747;23;20025;-87
2021/12/13 12:00:45;;;;;;;25.92;14.82;;;9.40;99.90;;;;;;6189950;23;20147;-87
2021/12/13 12:03:59;;;;;;;29.13;14.23;;;9.40;99.90;;;;;;6189555;23;20032;-86
2021/12/13 12:07:10;;;;;;;29.73;15.52;;;9.40;99.90;;;;;;6129064;23;20056;-86
2021/12/13 12:10:20;;;;;;;28.17;16.92;;;9.40;99.90;;;;;;6129037;23;20032;-85
2021/12/13 12:13:15;;;;;;;25.27;14.60;;;9.40;99.90;;;;;;6129492;23;20037;-85
2021/12/13 12:15:45;;;;;;;27.55;15.27;;;9.40;99.90;;;;;;6154322;23;20057;-86
2021/12/13 12:18:20;;;;;;;24.60;15.38;;;9.50;99.90;;;;;;6104632;23;20061;-86
2021/12/13 12:20:51;;;;;;;24.80;14.30;;;9.50;99.90;;;;;;6153963;23;20084;-85
2021/12/13 12:23:49;;;;;;;30.80;14.60;;;9.50;99.90;;;;;;6128918;23;20026;-86
2021/12/13 12:26:16;;;;;;;28.80;14.70;;;9.50;99.90;;;;;;6107430;23;20026;-85
2021/12/13 12:28:48;;;;;;;26.90;14.80;;;9.50;99.90;;;;;;6153719;23;20017;-86
2021/12/13 12:31:14;;;;;;;23.40;14.20;;;9.50;99.90;;;;;;6106780;23;20080;-86
2021/12/13 12:33:43;;;;;;;24.15;13.57;;;9.50;99.90;;;;;;6130905;23;20141;-87
2021/12/13 12:36:22;;;;;;;27.73;14.85;;;9.50;99.90;;;;;;6128766;23;20025;-87
2021/12/13 12:39:04;;;;;;;23.25;13.43;;;9.60;99.90;;;;;;6130657;23;20021;-86
2021/12/13 12:41:41;;;;;;;24.13;12.57;;;9.60;99.90;;;;;;6133745;23;20032;-86
2021/12/13 12:44:08;;;;;;;23.17;13.02;;;9.70;99.90;;;;;;6218608;23;20096;-87
2021/12/13 12:46:40;;;;;;;22.95;12.75;;;9.70;99.90;;;;;;6189032;23;20048;-87
2021/12/13 12:49:14;;;;;;;24.27;10.77;;;9.70;99.90;;;;;;6177167;23;20025;-86
2021/12/13 12:51:40;;;;;;;20.40;11.35;;;9.70;99.90;;;;;;6158899;23;20224;-86
2021/12/13 12:54:24;;;;;;;19.40;9.88;;;9.70;99.90;;;;;;6158240;23;20511;-87
2021/12/13 12:56:58;;;;;;;21.55;9.75;;;9.70;99.90;;;;;;6159522;23;20565;-87
2021/12/13 12:59:38;;;;;;;19.55;9.60;;;9.70;99.90;;;;;;6158686;23;20029;-86
2021/12/13 13:02:10;;;;;;;18.02;9.52;;;9.70;99.90;;;;;;6158941;23;20064;-87
2021/12/13 13:04:40;;;;;;;18.60;9.65;;;9.70;99.90;;;;;;6158093;23;20060;-88
2021/12/13 13:07:11;;;;;;;16.20;9.52;;;9.70;99.90;;;;;;6158665;23;20028;-86
2021/12/13 13:09:44;;;;;;;17.08;9.10;;;9.70;99.90;;;;;;6159169;23;20480;-87
2021/12/13 13:12:37;;;;;;;17.52;8.73;;;9.60;99.90;;;;;;6135149;23;20036;-87
2021/12/13 13:15:12;;;;;;;19.30;8.18;;;9.60;99.90;;;;;;6156154;23;20061;-87
2021/12/13 13:17:46;;;;;;;19.80;8.57;;;9.60;99.90;;;;;;6159291;23;20531;-86
2021/12/13 13:20:23;;;;;;;20.58;9.82;;;9.60;99.90;;;;;;6162124;23;20017;-87
2021/12/13 13:22:51;;;;;;;19.35;10.20;;;9.60;99.90;;;;;;6166361;23;20021;-86
2021/12/13 13:25:31;;;;;;;18.90;8.55;;;9.50;99.90;;;;;;6159433;23;20017;-87
2021/12/13 13:27:58;;;;;;;17.65;8.40;;;9.50;99.90;;;;;;6134615;23;20028;-87
2021/12/13 13:30:24;;;;;;;20.15;9.07;;;9.50;99.90;;;;;;6158869;23;20053;-87
2021/12/13 13:32:50;;;;;;;19.23;8.55;;;9.50;99.90;;;;;;6158270;23;20028;-87
2021/12/13 13:35:17;;;;;;;17.70;9.02;;;9.50;99.90;;;;;;6158069;23;20021;-86
2021/12/13 13:37:44;;;;;;;18.30;9.63;;;9.50;99.90;;;;;;6158782;23;20100;-85
2021/12/13 13:40:20;;;;;;;22.45;9.05;;;9.50;99.90;;;;;;6158394;23;20025;-86
2021/12/13 13:43:07;;;;;;;21.17;9.32;;;9.50;99.90;;;;;;6158663;23;20099;-85
2021/12/13 13:45:54;;;;;;;22.88;9.52;;;9.50;99.90;;;;;;6159679;23;20029;-87